Time;durP1;ratioP1;P1;durP2;ratioP2;P2;SDS_P1;SDS_P2;PMS_P1;PMS_P2;Temp;Humidity;BMP_temperature;BMP_pressure;BME280_temperature;BME280_humidity;BME280_pressure;Samples;Min_cycle;Max_cycle;Signal;HPM_P1;HPM_P2
2022/10/16 00:02:16;;;;;;;22.30;12.90;;;;;;;13.69;70.85;100168.19;102915;1290;139830;-81
2022/10/16 00:04:45;;;;;;;18.30;12.80;;;;;;;13.71;70.94;100165.30;103124;1286;108169;-82
2022/10/16 00:07:13;;;;;;;16.60;12.20;;;;;;;13.73;71.03;100166.61;102968;1285;140239;-78
2022/10/16 00:09:42;;;;;;;20.30;13.00;;;;;;;13.74;70.95;100162.86;103040;1286;99713;-83
2022/10/16 00:12:11;;;;;;;19.00;12.50;;;;;;;13.77;71.10;100163.27;103081;1284;99516;-81
2022/10/16 00:14:41;;;;;;;16.20;12.10;;;;;;;13.79;71.14;100159.85;103013;1283;138949;-78
2022/10/16 00:17:10;;;;;;;17.40;11.60;;;;;;;13.80;71.07;100160.64;104113;1290;107210;-79
2022/10/16 00:19:39;;;;;;;15.20;11.90;;;;;;;13.83;71.08;100159.69;104551;1292;138975;-80
2022/10/16 00:22:08;;;;;;;16.00;11.40;;;;;;;13.85;71.08;100156.61;104687;1292;96084;-82
2022/10/16 00:24:37;;;;;;;18.10;11.30;;;;;;;13.88;71.07;100161.35;104583;1290;140681;-80
2022/10/16 00:27:06;;;;;;;17.00;11.50;;;;;;;13.89;71.04;100160.40;104676;1293;111974;-80
2022/10/16 00:29:35;;;;;;;16.20;10.50;;;;;;;13.94;70.96;100159.88;104212;1294;107435;-79
2022/10/16 00:32:04;;;;;;;16.90;11.20;;;;;;;13.97;70.83;100163.40;102999;1292;140375;-79
2022/10/16 00:34:33;;;;;;;14.20;10.80;;;;;;;13.99;70.88;100165.70;103477;1291;96296;-82
2022/10/16 00:37:03;;;;;;;13.60;10.50;;;;;;;14.02;70.85;100167.86;102942;1284;138792;-79
2022/10/16 00:39:31;;;;;;;19.20;11.40;;;;;;;14.04;70.65;100172.67;103075;1290;110700;-84
2022/10/16 00:42:00;;;;;;;16.30;11.30;;;;;;;14.03;70.55;100176.41;103111;1293;107509;-80
2022/10/16 00:44:53;;;;;;;18.00;13.10;;;;;;;14.00;70.44;100176.52;102925;1293;138772;-83
2022/10/16 00:47:26;;;;;;;19.90;12.50;;;;;;;13.96;70.43;100177.21;103030;1292;97834;-83
2022/10/16 00:50:00;;;;;;;19.00;13.00;;;;;;;13.92;70.35;100176.02;103825;1284;138688;-86
2022/10/16 00:52:30;;;;;;;19.10;13.70;;;;;;;13.88;70.34;100182.13;103147;1290;112035;-80
2022/10/16 00:55:00;;;;;;;19.80;13.80;;;;;;;13.85;70.35;100181.43;102970;1298;139150;-82
2022/10/16 00:57:29;;;;;;;20.30;14.40;;;;;;;13.80;70.38;100183.89;102996;1286;108714;-80
2022/10/16 00:59:58;;;;;;;18.30;13.90;;;;;;;13.77;70.45;100190.17;102999;1291;97988;-82
2022/10/16 01:02:27;;;;;;;21.60;14.30;;;;;;;13.74;70.41;100183.85;102956;1285;138688;-82
2022/10/16 01:04:56;;;;;;;27.50;13.60;;;;;;;13.71;70.45;100183.99;103034;1283;111181;-78
2022/10/16 01:07:38;;;;;;;21.10;14.30;;;;;;;13.69;70.58;100192.83;102911;1287;138974;-77
2022/10/16 01:10:21;;;;;;;23.80;14.90;;;;;;;13.66;70.84;100192.62;103033;1285;109701;-77
2022/10/16 01:12:54;;;;;;;20.80;14.80;;;;;;;13.65;70.99;100186.91;102943;1284;139014;-78
2022/10/16 01:15:30;;;;;;;18.60;14.00;;;;;;;13.64;71.07;100192.71;103068;1286;99512;-79
2022/10/16 01:18:04;;;;;;;19.20;14.30;;;;;;;13.63;71.16;100194.48;103037;1285;110868;-78
2022/10/16 01:20:37;;;;;;;21.00;14.90;;;;;;;13.63;71.09;100189.09;102934;1285;139683;-79
2022/10/16 01:23:15;;;;;;;21.70;14.50;;;;;;;13.63;71.01;100183.48;104665;1293;107774;-78
2022/10/16 01:26:11;;;;;;;20.90;15.40;;;;;;;13.63;71.15;100195.88;104559;1290;138770;-80
2022/10/16 01:28:47;;;;;;;23.60;15.30;;;;;;;13.63;71.15;100199.74;104706;1284;97702;-79
2022/10/16 01:31:20;;;;;;;21.40;15.80;;;;;;;13.61;71.05;100205.38;104595;1292;139189;-80
2022/10/16 01:33:56;;;;;;;21.50;15.60;;;;;;;13.60;71.08;100210.70;104709;1283;107270;-81
2022/10/16 01:36:29;;;;;;;26.80;16.10;;;;;;;13.59;70.97;100210.57;104092;1276;139555;-80
2022/10/16 01:39:02;;;;;;;21.70;15.50;;;;;;;13.58;71.05;100214.27;104690;1286;95692;-83
2022/10/16 01:41:35;;;;;;;20.00;15.30;;;;;;;13.56;71.10;100216.11;104678;1284;97567;-84
2022/10/16 01:44:08;;;;;;;25.20;16.20;;;;;;;13.55;71.21;100210.95;103765;1285;138553;-81
2022/10/16 01:46:41;;;;;;;22.00;16.50;;;;;;;13.52;71.47;100212.64;103080;1291;107845;-80
2022/10/16 01:49:12;;;;;;;23.80;16.80;;;;;;;13.50;71.50;100211.17;102929;1284;138943;-79
2022/10/16 01:51:43;;;;;;;21.50;16.10;;;;;;;13.47;71.57;100207.11;103014;1291;97866;-79
2022/10/16 01:54:15;;;;;;;22.10;16.30;;;;;;;13.44;71.63;100202.33;103133;1293;97714;-80
2022/10/16 01:56:45;;;;;;;24.70;15.90;;;;;;;13.43;71.67;100202.41;103083;1285;111600;-84
2022/10/16 01:59:18;;;;;;;26.40;16.80;;;;;;;13.40;71.80;100198.34;103062;1285;108904;-78
2022/10/16 02:01:51;;;;;;;21.40;15.90;;;;;;;13.37;71.90;100198.47;102939;1285;139364;-80
2022/10/16 02:04:23;;;;;;;25.60;17.40;;;;;;;13.32;71.97;100204.09;104681;1292;95949;-81
2022/10/16 02:06:53;;;;;;;26.00;17.80;;;;;;;13.28;71.99;100204.98;104583;1294;140516;-80
2022/10/16 02:09:22;;;;;;;30.00;17.30;;;;;;;13.24;72.20;100207.73;104693;1293;110349;-81
2022/10/16 02:11:53;;;;;;;25.30;16.90;;;;;;;13.23;72.36;100203.96;104675;1293;108366;-85
2022/10/16 02:14:24;;;;;;;22.50;17.20;;;;;;;13.20;72.22;100203.21;104216;1294;138687;-82
2022/10/16 02:16:53;;;;;;;25.70;17.40;;;;;;;13.19;72.30;100200.64;103108;1284;99244;-82
2022/10/16 02:19:23;;;;;;;23.70;17.20;;;;;;;13.17;72.42;100199.49;102966;1284;140241;-81
2022/10/16 02:21:56;;;;;;;24.00;17.80;;;;;;;13.15;72.43;100199.04;103047;1293;110596;-82
2022/10/16 02:24:33;;;;;;;22.10;17.30;;;;;;;13.14;72.41;100203.09;103060;1287;139310;-84
2022/10/16 02:27:08;;;;;;;25.00;16.90;;;;;;;13.14;72.54;100204.19;103016;1284;106466;-82
2022/10/16 02:29:44;;;;;;;26.20;18.60;;;;;;;13.12;72.49;100205.12;103037;1287;97870;-81
2022/10/16 02:32:16;;;;;;;21.90;16.90;;;;;;;13.10;72.61;100197.55;102978;1277;140381;-83
2022/10/16 02:34:47;;;;;;;25.30;17.80;;;;;;;13.07;72.63;100197.62;103047;1293;111044;-82
2022/10/16 02:37:18;;;;;;;27.00;18.50;;;;;;;13.07;72.71;100203.41;103010;1291;138832;-83
2022/10/16 02:39:46;;;;;;;25.80;18.40;;;;;;;13.06;72.63;100203.81;103055;1292;108451;-84
2022/10/16 02:42:18;;;;;;;26.50;18.40;;;;;;;13.04;72.76;100203.20;103081;1287;97808;-84
2022/10/16 02:44:46;;;;;;;25.90;18.50;;;;;;;13.03;72.82;100209.86;103052;1291;97819;-84
2022/10/16 02:47:15;;;;;;;26.10;17.90;;;;;;;13.01;72.94;100209.94;103118;1290;111387;-83
2022/10/16 02:49:44;;;;;;;26.00;18.30;;;;;;;13.00;72.98;100207.19;102996;1292;138784;-79
2022/10/16 02:52:12;;;;;;;25.50;18.40;;;;;;;13.00;72.94;100209.11;103081;1285;106709;-83
2022/10/16 02:54:41;;;;;;;26.60;18.40;;;;;;;12.99;72.94;100210.71;102967;1287;138979;-84
2022/10/16 02:57:10;;;;;;;25.00;17.70;;;;;;;12.99;73.01;100215.61;103046;1291;98338;-83
2022/10/16 02:59:39;;;;;;;28.40;18.80;;;;;;;12.98;73.13;100217.58;103032;1287;111439;-83
2022/10/16 03:02:08;;;;;;;25.80;19.00;;;;;;;12.98;73.08;100221.42;103605;1261;139937;-80
2022/10/16 03:04:38;;;;;;;28.20;18.50;;;;;;;12.98;73.11;100224.92;103044;1293;108865;-83
2022/10/16 03:07:07;;;;;;;27.00;19.30;;;;;;;12.97;73.09;100225.64;103310;1287;138929;-80
2022/10/16 03:09:35;;;;;;;25.10;18.30;;;;;;;12.98;73.14;100225.10;103471;1293;97746;-81
2022/10/16 03:12:05;;;;;;;26.40;19.20;;;;;;;12.98;73.20;100231.73;103371;1300;112861;-84
2022/10/16 03:14:34;;;;;;;24.90;18.50;;;;;;;12.98;73.16;100231.91;103196;1293;140484;-80
2022/10/16 03:17:02;;;;;;;28.60;19.00;;;;;;;12.97;73.30;100235.60;103355;1286;107637;-81
2022/10/16 03:19:31;;;;;;;25.00;18.70;;;;;;;12.97;73.31;100235.60;103258;1293;138883;-81
2022/10/16 03:22:00;;;;;;;31.60;18.90;;;;;;;12.98;73.27;100237.15;103086;1285;97783;-80
2022/10/16 03:24:28;;;;;;;23.20;17.70;;;;;;;12.98;73.22;100238.00;102883;1287;138962;-78
2022/10/16 03:26:57;;;;;;;25.80;17.80;;;;;;;12.98;73.39;100239.21;103053;1292;109227;-80
2022/10/16 03:29:26;;;;;;;23.70;17.50;;;;;;;12.98;73.38;100241.66;103002;1292;107133;-84
2022/10/16 03:31:54;;;;;;;24.80;18.30;;;;;;;12.99;73.28;100242.70;102940;1285;140915;-81
2022/10/16 03:34:24;;;;;;;28.30;18.80;;;;;;;12.99;73.42;100243.05;103015;1293;98392;-81
2022/10/16 03:36:53;;;;;;;28.20;18.90;;;;;;;12.98;73.31;100239.56;102892;1286;138907;-82
2022/10/16 03:39:22;;;;;;;28.00;18.50;;;;;;;12.98;73.37;100240.63;102988;1277;106762;-82
2022/10/16 03:41:51;;;;;;;28.20;18.40;;;;;;;12.98;73.31;100241.14;102974;1284;107749;-81
2022/10/16 03:44:19;;;;;;;28.10;20.20;;;;;;;12.98;73.39;100243.60;102905;1290;138969;-81
2022/10/16 03:46:48;;;;;;;27.50;18.90;;;;;;;12.98;73.40;100246.58;103052;1286;98367;-80
2022/10/16 03:49:17;;;;;;;29.50;19.20;;;;;;;12.97;73.42;100249.73;102997;1287;139581;-80
2022/10/16 03:51:45;;;;;;;26.60;18.40;;;;;;;12.96;73.41;100250.31;103045;1284;109041;-84
2022/10/16 03:54:14;;;;;;;25.60;17.50;;;;;;;12.96;73.55;100253.46;103005;1292;106477;-81
2022/10/16 03:56:43;;;;;;;24.30;18.70;;;;;;;12.94;73.52;100255.63;102995;1293;138642;-78
2022/10/16 03:59:12;;;;;;;24.80;17.40;;;;;;;12.93;73.52;100253.58;103061;1285;97761;-81
2022/10/16 04:01:41;;;;;;;25.70;18.90;;;;;;;12.91;73.41;100253.98;102967;1278;140257;-85
2022/10/16 04:04:09;;;;;;;27.00;18.40;;;;;;;12.90;73.56;100254.92;103068;1293;109806;-83
2022/10/16 04:06:38;;;;;;;23.70;17.70;;;;;;;12.88;73.59;100258.50;102943;1290;140018;-84
2022/10/16 04:09:07;;;;;;;26.40;17.90;;;;;;;12.86;73.58;100254.76;103020;1277;97869;-85
2022/10/16 04:11:35;;;;;;;26.00;18.70;;;;;;;12.83;73.60;100247.73;103040;1292;97805;-83
2022/10/16 04:14:04;;;;;;;24.20;18.10;;;;;;;12.81;73.65;100243.09;102878;1287;138782;-83
2022/10/16 04:16:33;;;;;;;25.80;18.50;;;;;;;12.79;73.73;100246.50;102985;1287;107388;-82
2022/10/16 04:19:01;;;;;;;23.40;17.50;;;;;;;12.77;73.80;100252.33;102863;1285;139015;-80
2022/10/16 04:21:30;;;;;;;24.50;17.40;;;;;;;12.76;73.85;100256.41;103031;1294;97946;-82
2022/10/16 04:23:59;;;;;;;24.80;17.10;;;;;;;12.75;73.95;100264.27;103008;1290;97822;-81
2022/10/16 04:26:27;;;;;;;26.40;17.50;;;;;;;12.73;73.98;100259.44;102875;1285;138738;-84
2022/10/16 04:28:56;;;;;;;27.40;18.10;;;;;;;12.73;74.09;100259.30;103048;1291;108016;-81
2022/10/16 04:31:25;;;;;;;25.10;18.40;;;;;;;12.71;74.05;100260.75;102901;1278;140259;-83
2022/10/16 04:33:54;;;;;;;26.40;18.00;;;;;;;12.69;74.15;100267.45;102998;1278;97897;-84
2022/10/16 04:36:22;;;;;;;24.30;18.20;;;;;;;12.68;74.24;100268.72;102925;1291;138804;-83
2022/10/16 04:38:56;;;;;;;26.00;18.00;;;;;;;12.68;74.28;100270.30;103061;1294;111255;-81
2022/10/16 04:41:25;;;;;;;26.50;17.30;;;;;;;12.66;74.29;100267.41;103084;1291;106526;-83
2022/10/16 04:43:53;;;;;;;25.50;18.00;;;;;;;12.64;74.33;100269.05;102957;1285;138965;-82
2022/10/16 04:46:22;;;;;;;24.40;17.70;;;;;;;12.63;74.36;100272.92;103040;1285;97940;-83
2022/10/16 04:48:50;;;;;;;24.80;18.30;;;;;;;12.61;74.49;100272.67;102983;1283;140464;-81
2022/10/16 04:51:19;;;;;;;26.40;18.70;;;;;;;12.61;74.50;100275.66;103021;1284;113227;-81
2022/10/16 04:53:48;;;;;;;30.60;18.20;;;;;;;12.59;74.43;100278.36;103050;1285;108648;-84
2022/10/16 04:56:17;;;;;;;28.20;19.20;;;;;;;12.56;74.46;100282.83;102818;1280;138885;-86
2022/10/16 04:58:45;;;;;;;26.60;18.80;;;;;;;12.53;74.54;100281.04;103035;1285;97810;-81
2022/10/16 05:01:14;;;;;;;28.10;18.40;;;;;;;12.50;74.58;100280.63;102867;1291;140428;-83
2022/10/16 05:03:43;;;;;;;27.40;18.30;;;;;;;12.48;74.71;100286.11;102981;1283;111999;-84
2022/10/16 05:06:11;;;;;;;23.70;18.10;;;;;;;12.46;74.78;100288.48;103938;1293;105779;-83
2022/10/16 05:08:40;;;;;;;24.50;18.30;;;;;;;12.44;74.82;100289.92;103277;1294;138700;-78
2022/10/16 05:11:09;;;;;;;27.70;19.10;;;;;;;12.43;74.79;100295.21;103374;1295;97821;-79
2022/10/16 05:13:37;;;;;;;26.10;19.00;;;;;;;12.40;74.97;100302.63;103257;1295;138730;-79
2022/10/16 05:16:07;;;;;;;27.50;18.20;;;;;;;12.39;75.00;100309.66;104145;1295;111173;-77
2022/10/16 05:18:35;;;;;;;23.90;18.50;;;;;;;12.38;75.05;100314.90;103748;1294;139070;-82
2022/10/16 05:21:05;;;;;;;29.40;19.20;;;;;;;12.38;75.13;100313.52;103411;1294;106942;-83
2022/10/16 05:23:34;;;;;;;23.70;18.00;;;;;;;12.39;75.18;100309.14;104849;1294;95962;-84
2022/10/16 05:26:03;;;;;;;22.30;18.20;;;;;;;12.39;75.23;100306.16;104764;1298;140405;-79
2022/10/16 05:28:32;;;;;;;25.60;17.90;;;;;;;12.41;75.22;100308.38;104939;1301;110284;-84
2022/10/16 05:31:05;;;;;;;26.00;18.40;;;;;;;12.43;75.10;100303.06;104776;1294;138888;-80
2022/10/16 05:33:34;;;;;;;25.60;18.90;;;;;;;12.45;75.20;100309.42;104896;1301;107214;-81
2022/10/16 05:36:03;;;;;;;25.00;18.70;;;;;;;12.46;75.14;100305.37;104893;1294;96110;-80
2022/10/16 05:38:32;;;;;;;27.60;17.80;;;;;;;12.47;75.01;100302.73;104804;1292;138615;-80
2022/10/16 05:41:01;;;;;;;27.40;18.90;;;;;;;12.47;74.90;100301.67;104920;1294;111554;-84
2022/10/16 05:43:30;;;;;;;28.80;18.60;;;;;;;12.48;74.99;100302.17;103441;1297;138930;-82
2022/10/16 05:46:01;;;;;;;28.20;18.30;;;;;;;12.57;75.10;100305.13;103452;1293;107235;-85
2022/10/16 05:48:30;;;;;;;26.20;18.10;;;;;;;12.74;75.13;100311.06;103204;1294;139585;-80
2022/10/16 05:51:01;;;;;;;25.50;17.00;;;;;;;12.91;74.80;100313.52;103332;1294;98442;-81
2022/10/16 05:53:32;;;;;;;23.90;17.40;;;;;;;13.04;74.52;100309.83;104917;1288;111159;-80
2022/10/16 05:56:02;;;;;;;22.70;17.00;;;;;;;13.18;74.03;100315.04;103973;1301;139488;-79
2022/10/16 05:58:32;;;;;;;27.40;18.70;;;;;;;13.23;73.84;100322.17;103349;1293;108737;-85
2022/10/16 06:01:04;;;;;;;25.20;17.20;;;;;;;13.24;73.69;100322.48;103311;1299;137784;-78
2022/10/16 06:03:33;;;;;;;24.60;17.50;;;;;;;13.27;73.50;100324.61;104288;1295;97721;-82
2022/10/16 06:06:09;;;;;;;24.50;17.00;;;;;;;13.38;73.50;100330.13;103522;1293;111568;-82
2022/10/16 06:08:41;;;;;;;24.10;17.40;;;;;;;13.52;73.31;100332.14;103278;1287;139229;-78
2022/10/16 06:11:11;;;;;;;23.80;16.10;;;;;;;13.69;72.99;100334.36;103360;1301;107804;-87
2022/10/16 06:13:42;;;;;;;23.50;17.20;;;;;;;13.90;72.71;100337.42;103250;1297;140771;-84
2022/10/16 06:16:12;;;;;;;23.80;16.00;;;;;;;14.08;72.18;100337.15;103241;1294;97800;-85
2022/10/16 06:18:40;;;;;;;22.00;16.80;;;;;;;14.28;71.93;100339.75;103281;1295;138797;-80
2022/10/16 06:21:12;;;;;;;24.60;16.40;;;;;;;14.51;71.54;100342.53;103456;1300;107503;-85
2022/10/16 06:23:41;;;;;;;18.80;15.60;;;;;;;14.76;70.89;100338.92;103389;1286;107526;-88
2022/10/16 06:26:11;;;;;;;23.60;16.40;;;;;;;15.03;70.55;100337.61;103277;1301;139305;-84
2022/10/16 06:28:40;;;;;;;19.20;15.10;;;;;;;15.34;69.86;100336.58;103388;1301;97826;-84
2022/10/16 06:31:11;;;;;;;19.60;14.20;;;;;;;15.64;69.32;100337.53;103251;1291;138531;-83
2022/10/16 06:33:40;;;;;;;19.60;14.80;;;;;;;15.95;68.74;100340.48;103376;1294;107688;-86
2022/10/16 06:36:11;;;;;;;20.80;15.40;;;;;;;16.30;67.77;100346.64;103417;1285;106125;-82
2022/10/16 06:38:40;;;;;;;17.80;13.90;;;;;;;16.73;66.69;100345.73;103254;1292;140485;-82
2022/10/16 06:41:12;;;;;;;20.60;14.20;;;;;;;17.20;65.48;100342.30;103272;1287;98567;-80
2022/10/16 06:43:41;;;;;;;18.00;14.80;;;;;;;17.68;64.46;100349.86;103262;1301;139482;-87
2022/10/16 06:46:12;;;;;;;20.40;14.30;;;;;;;18.14;63.23;100349.92;103382;1287;105973;-86
2022/10/16 06:48:40;;;;;;;18.80;14.00;;;;;;;18.66;61.91;100347.88;103231;1290;139123;-83
2022/10/16 06:51:12;;;;;;;16.60;13.10;;;;;;;19.09;61.20;100350.34;103281;1295;97841;-86
2022/10/16 06:53:43;;;;;;;18.30;13.00;;;;;;;19.40;60.66;100343.01;103364;1277;97851;-87
2022/10/16 06:56:31;;;;;;;16.40;13.60;;;;;;;19.35;59.36;100344.04;103295;1287;138829;-84
2022/10/16 06:59:01;;;;;;;18.20;13.60;;;;;;;19.73;59.82;100348.71;104809;1294;107839;-84
2022/10/16 07:01:30;;;;;;;21.00;13.60;;;;;;;20.31;58.96;100347.84;104785;1301;138905;-88
2022/10/16 07:04:00;;;;;;;14.40;12.50;;;;;;;19.98;57.68;100348.02;104017;1294;97834;-81
2022/10/16 07:06:33;;;;;;;19.50;12.90;;;;;;;19.37;57.72;100350.95;102915;1294;140581;-82
2022/10/16 07:09:05;;;;;;;17.80;13.20;;;;;;;18.75;58.40;100360.17;104666;1294;110783;-87
2022/10/16 07:11:35;;;;;;;19.10;13.40;;;;;;;18.19;59.25;100366.98;104581;1294;106776;-88
2022/10/16 07:14:04;;;;;;;15.40;13.00;;;;;;;17.72;59.62;100370.40;104517;1285;140139;-85
2022/10/16 07:16:34;;;;;;;20.10;13.60;;;;;;;17.25;60.28;100373.33;103313;1290;97802;-79
2022/10/16 07:19:03;;;;;;;17.40;12.80;;;;;;;16.87;61.07;100374.63;102916;1287;138865;-88
2022/10/16 07:21:35;;;;;;;18.00;13.70;;;;;;;16.51;61.69;100382.56;103094;1293;110345;-85
2022/10/16 07:24:06;;;;;;;19.60;13.60;;;;;;;16.19;62.32;100379.17;103082;1290;108017;-85
2022/10/16 07:26:38;;;;;;;18.90;14.20;;;;;;;15.92;63.07;100374.48;102965;1287;139477;-83
2022/10/16 07:29:11;;;;;;;18.10;14.20;;;;;;;15.66;63.60;100374.75;103075;1285;99331;-86
2022/10/16 07:31:40;;;;;;;18.60;14.00;;;;;;;15.45;64.26;100369.16;102938;1294;138814;-86
2022/10/16 07:34:13;;;;;;;19.70;15.00;;;;;;;15.32;64.81;100360.38;103072;1287;112935;-84
2022/10/16 07:36:42;;;;;;;20.30;15.40;;;;;;;15.25;65.17;100354.90;103016;1286;138934;-86
2022/10/16 07:39:16;;;;;;;27.10;15.40;;;;;;;15.77;65.71;100352.77;102953;1287;106712;-83
2022/10/16 07:41:47;;;;;;;20.50;14.40;;;;;;;16.92;64.78;100355.88;102991;1291;97925;-89
2022/10/16 07:44:16;;;;;;;19.20;13.90;;;;;;;18.04;63.17;100353.66;102896;1292;138956;-85
2022/10/16 07:46:48;;;;;;;19.30;13.80;;;;;;;19.20;61.14;100351.54;103032;1284;111100;-88
2022/10/16 07:49:17;;;;;;;16.70;13.00;;;;;;;20.10;59.44;100374.20;102927;1290;138652;-89
2022/10/16 07:51:46;;;;;;;17.70;12.40;;;;;;;20.74;57.01;100370.22;103038;1291;107686;-89
2022/10/16 07:54:15;;;;;;;17.20;12.80;;;;;;;21.09;56.73;100365.73;103010;1294;97845;-86
2022/10/16 07:56:44;;;;;;;18.10;13.00;;;;;;;21.65;54.99;100358.88;102955;1294;137717;-82
2022/10/16 07:59:12;;;;;;;18.30;12.80;;;;;;;21.83;54.20;100351.98;103073;1293;111652;-82
2022/10/16 08:01:42;;;;;;;15.70;12.20;;;;;;;22.17;54.15;100360.98;103017;1278;138441;-85
2022/10/16 08:04:12;;;;;;;17.80;11.80;;;;;;;22.53;52.77;100370.89;103052;1287;107556;-83
2022/10/16 08:06:41;;;;;;;18.90;11.80;;;;;;;22.43;52.06;100370.88;102964;1284;138456;-85
2022/10/16 08:09:10;;;;;;;14.80;11.20;;;;;;;22.26;51.87;100372.88;103034;1283;97914;-84
2022/10/16 08:11:38;;;;;;;17.80;11.80;;;;;;;22.32;51.68;100377.02;103069;1293;112295;-83
2022/10/16 08:14:07;;;;;;;16.10;11.00;;;;;;;22.17;51.46;100380.70;102906;1293;138203;-83
2022/10/16 08:16:36;;;;;;;17.60;10.70;;;;;;;21.65;52.13;100374.99;102991;1287;106851;-87
2022/10/16 08:19:05;;;;;;;14.00;11.30;;;;;;;21.20;52.79;100381.70;102898;1292;138243;-84
2022/10/16 08:21:33;;;;;;;14.30;11.50;;;;;;;20.73;53.42;100379.85;103096;1294;97741;-91
2022/10/16 08:24:02;;;;;;;17.60;11.20;;;;;;;20.43;54.38;100379.16;103107;1291;111140;-86
2022/10/16 08:26:31;;;;;;;16.00;10.80;;;;;;;20.26;54.99;100377.66;102876;1286;138466;-86
2022/10/16 08:29:00;;;;;;;14.30;11.10;;;;;;;20.24;55.51;100384.91;103029;1286;107118;-86
2022/10/16 08:31:28;;;;;;;15.60;11.40;;;;;;;20.19;55.48;100392.08;102969;1290;138318;-80
2022/10/16 08:33:57;;;;;;;13.70;10.60;;;;;;;20.10;55.78;100394.02;103030;1293;97898;-82
2022/10/16 08:36:26;;;;;;;14.00;10.60;;;;;;;20.04;56.08;100402.03;102902;1291;138183;-80
2022/10/16 08:38:55;;;;;;;16.90;11.00;;;;;;;19.89;55.99;100406.00;103027;1286;106692;-78
2022/10/16 08:42:01;;;;;;;16.90;10.50;;;;;;;19.69;56.23;100398.73;102992;1291;107297;-79
2022/10/16 08:44:44;;;;;;;15.30;10.80;;;;;;;19.58;56.71;100397.73;102868;1290;138014;-86
2022/10/16 08:47:22;;;;;;;18.10;10.90;;;;;;;19.59;56.96;100397.66;103067;1292;97829;-83
2022/10/16 08:49:58;;;;;;;15.20;10.70;;;;;;;19.54;56.81;100397.96;103001;1285;138120;-83
2022/10/16 08:52:33;;;;;;;19.30;11.00;;;;;;;19.58;56.89;100400.36;103092;1295;107377;-86
2022/10/16 08:55:02;;;;;;;13.10;10.70;;;;;;;19.68;57.01;100398.30;102939;1293;138336;-87
2022/10/16 08:57:32;;;;;;;14.40;10.50;;;;;;;19.68;57.30;100400.08;103027;1291;99397;-80
2022/10/16 09:00:12;;;;;;;13.90;11.10;;;;;;;19.71;57.16;100400.73;104621;1294;96840;-80
2022/10/16 09:02:49;;;;;;;14.40;10.40;;;;;;;19.66;57.22;100404.23;103657;1290;137706;-82
2022/10/16 09:05:33;;;;;;;13.50;10.30;;;;;;;19.63;57.28;100404.45;103027;1290;108091;-82
2022/10/16 09:08:10;;;;;;;13.30;10.50;;;;;;;19.71;57.93;100410.60;102902;1284;138450;-80
2022/10/16 09:10:56;;;;;;;13.90;9.80;;;;;;;19.88;57.62;100410.67;103697;1299;98222;-82
2022/10/16 09:13:30;;;;;;;16.40;10.00;;;;;;;20.03;57.17;100413.88;103090;1290;138064;-82
2022/10/16 09:16:13;;;;;;;15.20;11.30;;;;;;;20.05;56.62;100409.85;103123;1285;111535;-86
2022/10/16 09:18:47;;;;;;;14.60;10.40;;;;;;;20.04;56.49;100405.51;103022;1283;138474;-89
2022/10/16 09:21:20;;;;;;;13.50;10.20;;;;;;;20.09;56.38;100402.54;104642;1293;108100;-84
2022/10/16 09:23:49;;;;;;;14.40;10.70;;;;;;;20.31;56.95;100397.65;104709;1290;95748;-85
2022/10/16 09:26:19;;;;;;;13.60;10.40;;;;;;;20.45;56.66;100400.86;104397;1297;138138;-86
2022/10/16 09:28:48;;;;;;;12.40;10.30;;;;;;;20.44;56.59;100397.44;103122;1290;109877;-86
2022/10/16 09:31:21;;;;;;;14.40;9.90;;;;;;;20.43;56.57;100398.34;102975;1290;138466;-91
2022/10/16 09:33:54;;;;;;;15.10;9.90;;;;;;;20.37;55.83;100396.34;103075;1294;107669;-83
2022/10/16 09:36:26;;;;;;;10.40;9.30;;;;;;;20.22;56.00;100401.95;103045;1290;138002;-85
2022/10/16 09:39:05;;;;;;;12.30;10.00;;;;;;;20.10;56.22;100397.52;103118;1293;99196;-82
2022/10/16 09:41:38;;;;;;;12.60;10.00;;;;;;;20.02;56.45;100393.70;103089;1290;111167;-84
2022/10/16 09:44:17;;;;;;;11.60;9.80;;;;;;;20.01;56.94;100395.54;102962;1297;139399;-93
2022/10/16 09:46:45;;;;;;;12.50;10.00;;;;;;;20.01;56.57;100403.42;103448;1284;107780;-85
2022/10/16 09:49:25;;;;;;;15.10;10.00;;;;;;;19.95;56.71;100406.00;103764;1290;138038;-83
2022/10/16 09:52:04;;;;;;;14.10;10.50;;;;;;;19.88;56.80;100404.82;103039;1285;99525;-83
2022/10/16 09:54:33;;;;;;;14.40;9.80;;;;;;;19.94;57.06;100400.20;102927;1290;138173;-84
2022/10/16 09:57:13;;;;;;;16.70;10.00;;;;;;;20.18;57.10;100400.63;103108;1294;107746;-88
2022/10/16 09:59:48;;;;;;;13.60;9.70;;;;;;;20.35;56.77;100400.73;104116;1294;107032;-84
2022/10/16 10:02:19;;;;;;;15.90;9.40;;;;;;;20.42;56.91;100401.63;103137;1290;136909;-82
2022/10/16 10:04:54;;;;;;;13.80;10.30;;;;;;;20.50;56.60;100399.29;103022;1285;98320;-83
2022/10/16 10:07:26;;;;;;;14.50;10.10;;;;;;;20.53;56.25;100399.69;103020;1293;137900;-87
2022/10/16 10:09:57;;;;;;;13.00;9.90;;;;;;;20.55;56.15;100403.23;102963;1294;139081;-86
2022/10/16 10:12:28;;;;;;;10.30;9.20;;;;;;;20.60;55.83;100403.59;103194;1299;108934;-85
2022/10/16 10:15:04;;;;;;;15.10;10.80;;;;;;;20.69;55.91;100406.84;103084;1294;138579;-80
2022/10/16 10:17:32;;;;;;;14.00;10.20;;;;;;;20.75;55.70;100410.59;103380;1303;97960;-91
2022/10/16 10:20:15;;;;;;;14.60;9.80;;;;;;;20.74;55.50;100402.14;103224;1299;138313;-89
2022/10/16 10:22:45;;;;;;;13.70;9.90;;;;;;;20.77;55.54;100403.21;103618;1301;108059;-84
2022/10/16 10:25:26;;;;;;;12.90;9.80;;;;;;;20.72;55.25;100400.06;104867;1294;107076;-92
2022/10/16 10:28:07;;;;;;;13.10;9.60;;;;;;;20.59;55.19;100395.72;104753;1294;138939;-82
2022/10/16 10:30:42;;;;;;;13.60;9.80;;;;;;;20.48;55.53;100386.02;104938;1295;96821;-80
2022/10/16 10:33:24;;;;;;;16.10;10.40;;;;;;;20.44;55.50;100386.12;104774;1295;138683;-83
2022/10/16 10:36:00;;;;;;;16.40;10.00;;;;;;;20.28;55.44;100391.66;104917;1297;107993;-90
2022/10/16 10:38:39;;;;;;;17.90;10.00;;;;;;;20.11;55.81;100393.78;104772;1299;138002;-87
2022/10/16 10:41:24;;;;;;;13.10;9.70;;;;;;;19.98;56.04;100391.29;104955;1305;96312;-84
2022/10/16 10:44:08;;;;;;;15.80;10.10;;;;;;;19.88;56.42;100395.16;104556;1303;138164;-85
2022/10/16 10:46:42;;;;;;;15.30;10.20;;;;;;;19.81;56.52;100393.54;104843;1292;112233;-80
2022/10/16 10:49:30;;;;;;;;;;;;;;;19.77;56.73;100392.18;103357;1298;107288;-82
2022/10/16 10:52:08;;;;;;;13.90;10.60;;;;;;;19.73;56.84;100392.27;103306;1302;107704;-81
2022/10/16 10:54:44;;;;;;;14.40;10.80;;;;;;;19.69;56.79;100392.76;103380;1300;97808;-86
2022/10/16 10:57:26;;;;;;;17.10;11.90;;;;;;;19.67;57.08;100386.02;103346;1299;137905;-80
2022/10/16 11:00:09;;;;;;;14.10;10.20;;;;;;;19.69;57.01;100390.83;103327;1301;113315;-85
2022/10/16 11:02:41;;;;;;;14.80;11.20;;;;;;;19.66;57.10;100394.01;103171;1300;138052;-82
2022/10/16 11:05:38;;;;;;;15.60;10.40;;;;;;;19.63;57.33;100394.91;103453;1299;108151;-80
2022/10/16 11:08:15;;;;;;;16.70;10.60;;;;;;;19.62;57.33;100387.56;103299;1297;138613;-86
2022/10/16 11:10:52;;;;;;;16.50;10.70;;;;;;;19.62;57.35;100384.96;103388;1297;98364;-85
2022/10/16 11:13:28;;;;;;;14.00;10.60;;;;;;;19.63;57.36;100392.84;103255;1300;111500;-83
2022/10/16 11:16:00;;;;;;;14.70;10.60;;;;;;;19.58;57.21;100395.95;103404;1298;108178;-89
2022/10/16 11:18:45;;;;;;;17.50;10.70;;;;;;;19.49;57.34;100398.67;104995;1292;107063;-87